• Join FlightAware (Why Join?)
  • Login
  • US Flag 
11:11PM EDT


 

Airport Tracker/Info


-or-


 

Live Flight TrackerFlight Track Log ✈ N411CC ✈ 28-Jul-2013 ✈ KBLI - KUAO

Flight Track Log - Related Links

Times and Time Zones

All times are in EDT time to prevent confusion due to time zone crossing. See the N411CC flight status page for this flight to view local times or setup timezone preferences in your user account.

Time Position Orientation Groundspeed Altitude Reporting Facility
EDT Latitude Longitude Course Direction KTS MPH feet Rate Location/Type
09:56PM 48.4364 -122.4942 181° South 197 227 8,600  Level Seattle Center
09:57PM 48.3775 -122.4883 176° South 212 244 9,000 1,080 Climbing Seattle Center
09:58PM 48.3233 -122.4758 171° South 197 227 10,800 1,500 Climbing Seattle Center
09:59PM 48.2733 -122.4653 172° South 184 212 12,100 1,260 Climbing Seattle Center
10:00PM 48.2228 -122.4558 173° South 185 213 13,400 1,380 Climbing Seattle Center
10:02PM 48.4074 -122.5451 181° South  Level Estimated
10:02PM 48.1625 -122.4456 174° South 183 211 15,000  Level Seattle Center
10:03PM 48.1122 -122.4344 172° South 187 215 16,200 1,200 Climbing Seattle Center
10:04PM 48.0594 -122.4250 173° South 194 223 17,500 1,200 Climbing Seattle Center
10:05PM 48.0078 -122.4150 173° South 189 217 18,700 1,080 Climbing Seattle Center
10:06PM 47.9547 -122.4047 173° South 191 220 19,800 1,080 Climbing Seattle Center
10:07PM 47.8992 -122.3950 173° South 201 231 20,900 540 Climbing Seattle Center
10:08PM 47.8367 -122.3842 173° South 230 265 21,000  Climbing Seattle Center
10:09PM 47.7639 -122.3706 173° South 263 303 21,000  Level Seattle Center
10:10PM 47.6722 -122.3550 173° South 284 327 21,000  Level Seattle Center
10:11PM 47.6011 -122.3397 172° South 291 335 21,000  Level Seattle Center
10:12PM 47.5222 -122.3264 173° South 288 331 21,000  Level Seattle Center
10:13PM 47.4425 -122.3122 173° South 289 333 21,000  Level Seattle Center
10:14PM 47.3644 -122.3103 179° South 284 327 21,100  Climbing Seattle Center
10:15PM 47.2694 -122.3100 180° South 286 329 21,000 -60 Descending Seattle Center
10:16PM 47.1914 -122.3100 180° South 284 327 21,000  Level Seattle Center
10:17PM 47.1125 -122.3119 181° South 286 329 21,000  Level Seattle Center
10:18PM 47.0336 -122.3119 180° South 286 329 21,000  Level Seattle Center
10:19PM 46.9550 -122.3117 180° South 286 329 21,000  Level Seattle Center
10:20PM 46.8758 -122.3114 180° South 286 329 21,000  Level Seattle Center
10:21PM 46.7978 -122.3097 179° South 284 327 21,000  Level Seattle Center
10:22PM 46.7192 -122.3089 180° South 285 328 21,000 -420 Level Seattle Center
10:23PM 46.6394 -122.3106 181° South 287 330 20,200 -1,380 Descending Seattle Center
10:24PM 46.5511 -122.3111 180° South 270 311 18,200 -1,140 Descending Seattle Center
10:25PM 46.4806 -122.3086 179° South 259 298 18,000 -120 Descending Seattle Center
10:26PM 46.4069 -122.3103 181° South 266 306 18,000 -360 Level Seattle Center
10:27PM 46.3417 -122.3161 184° South 273 314 17,400 -960 Descending Seattle Center
10:28PM 46.2508 -122.3019 174° South 288 331 16,100 -1,020 Descending Seattle Center
10:29PM 46.1728 -122.3136 186° South 277 319 15,300 -1,200 Descending Seattle Center
10:30PM 46.1003 -122.3053 175° South 272 313 13,700 -1,560 Descending Seattle Center
10:31PM 46.0239 -122.3267 191° South 277 319 12,200 -1,380 Descending Seattle Center
10:32PM 45.9508 -122.3625 199° South 277 319 11,000 -1,440 Descending Seattle Center
10:33PM 45.8772 -122.3981 199° South 282 325 9,300 -1,980 Descending Seattle Center
10:34PM 45.8022 -122.4408 202° Southwest 291 335 7,100 -1,980 Descending Seattle Center
10:35PM 45.7364 -122.5056 214° Southwest 287 330 5,300 -1,860 Descending Seattle Center
10:36PM 45.6756 -122.5664 215° Southwest 273 314 3,400 -1,440 Descending Seattle Center
10:37PM 45.6203 -122.5886 196° South 242 278 2,400 -1,140 Descending Seattle Center
10:38PM 45.5925 -122.5372 128° Southeast 190 219 1,200 -1,260 Descending Seattle Center
10:39PM 45.5753 -122.5469 202° Southwest 125 144 500 -1,320 Descending Seattle Center